Pagrindinis puslapis
METAR-TAF:

METAR-TAF

Oro uostai :

Varna, Bulgarija

platuma: 43-12N, ilguma: 027-55E, Aukštis: 41 m

Dabartinis oras

Ataskaita buvo paskelbta 29 minutes, ne 12:00 UTC
Vėjas 7 kt iš Vakarų
Temperatūra 8°C
Drėgmė 66%
Slėgis 1015 hPa
Matomumas 10 km arba daugiau
nėra debesų žemiau 1500 m ir nėra kamuolinių lietaus debesų

METAR: LBWN 071200Z 27007KT CAVOK 08/02 Q1015 NOSIG

Laikas: 14:29 (12:29 UTC)

Prognozė

Ataskaita buvo paskelbta 1 valandą ir 29 minutes, ne 11:00 UTC
Prognozė galioja nuo 07 metu 12 UTC su 08 metu 12 UTC
Vėjas 8 kt iš Vakarų/Šiaurės Vakarų
Matomumas 10 km arba daugiau
Išsisklaidę debesys ne aukštis 4500 ft
Tikimybė 40% :
Laikinai
nuo 07 metu 15 UTC su 07 metu 22 UTC
Matomumas: 5000 m
Išsisklaidę debesys ne aukštis 1500 ft
Su prošvaistėmis ne aukštis 3000 ft
lietus

TAF: LBWN 071100Z 0712/0812 29008KT 9999 SCT045 PROB40 TEMPO 0715/0722 5000 RA SCT015 BKN030

Orai ataskaitas ir orų prognozės (METAR, TAF).

turimą stotys yra geltonos ir raudonos taškus žemėlapyje.

Perkelti pele per norėdami pamatyti stoties vardą.

Tada spustelėkite, norėdami matyti oro stebėjimo ir prognozės.

Norėdami pakeisti žemėlapį: spustelėkite ant žalios mygtukų su juodo kryžiaus žemyn,; žalią mygtuką su brūkšneliu, jei norite nutolinti; arba žalių rodyklių gretimoms žemėlapius.


METAR-TAF: